Time;durP1;ratioP1;P1;durP2;ratioP2;P2;SDS_P1;SDS_P2;PMS_P1;PMS_P2;Temp;Humidity;BMP_temperature;BMP_pressure;BME280_temperature;BME280_humidity;BME280_pressure;Samples;Min_cycle;Max_cycle;Signal;HPM_P1;HPM_P2
2023/03/30 00:02:29;;;;;;;1.95;1.50;;;17.80;61.10;;;;;;5054612;28;20552;-23
2023/03/30 00:05:01;;;;;;;1.75;1.58;;;17.80;61.10;;;;;;5054854;28;20044;-23
2023/03/30 00:07:29;;;;;;;1.40;1.30;;;17.80;61.10;;;;;;5054342;28;20057;-23
2023/03/30 00:09:55;;;;;;;2.70;1.30;;;17.90;61.20;;;;;;5052975;28;20029;-23
2023/03/30 00:12:21;;;;;;;2.17;1.40;;;17.80;61.20;;;;;;5054402;28;20025;-23
2023/03/30 00:14:48;;;;;;;1.77;1.33;;;17.80;61.20;;;;;;5053138;28;20040;-22
2023/03/30 00:17:14;;;;;;;1.77;1.63;;;17.80;61.10;;;;;;5054252;28;20111;-23
2023/03/30 00:19:40;;;;;;;1.77;1.58;;;17.80;61.10;;;;;;5054190;28;20037;-23
2023/03/30 00:22:08;;;;;;;1.55;1.45;;;17.80;61.20;;;;;;5054025;28;20032;-22
2023/03/30 00:24:37;;;;;;;1.75;1.50;;;17.80;61.20;;;;;;5054607;28;20488;-22
2023/03/30 00:27:03;;;;;;;2.15;1.60;;;17.80;61.20;;;;;;5054115;28;20032;-23
2023/03/30 00:29:29;;;;;;;2.90;1.60;;;17.80;61.20;;;;;;5054158;28;20021;-23
2023/03/30 00:31:55;;;;;;;2.10;1.70;;;17.80;61.20;;;;;;5053773;28;20029;-22
2023/03/30 00:34:21;;;;;;;2.20;1.50;;;17.80;61.20;;;;;;5054362;28;20039;-23
2023/03/30 00:36:52;;;;;;;1.60;1.48;;;17.80;61.20;;;;;;5054329;28;20090;-23
2023/03/30 00:39:21;;;;;;;2.30;1.42;;;17.80;61.30;;;;;;5054250;28;20033;-23
2023/03/30 00:41:47;;;;;;;2.00;1.70;;;17.70;61.20;;;;;;5053653;28;20456;-22
2023/03/30 00:44:50;;;;;;;1.90;1.60;;;17.80;61.20;;;;;;5053998;28;20021;-22
2023/03/30 00:47:16;;;;;;;1.77;1.40;;;17.80;61.30;;;;;;5053886;28;20500;-23
2023/03/30 00:49:43;;;;;;;1.98;1.40;;;17.70;61.30;;;;;;5053632;28;20033;-23
2023/03/30 00:52:11;;;;;;;2.53;1.70;;;17.80;61.30;;;;;;5053663;28;20051;-23
2023/03/30 00:54:38;;;;;;;2.00;1.67;;;17.80;61.30;;;;;;5053534;28;20067;-23
2023/03/30 00:57:06;;;;;;;1.30;1.20;;;17.70;61.30;;;;;;5053762;28;20025;-23
2023/03/30 00:59:33;;;;;;;2.85;1.52;;;17.80;61.30;;;;;;5053800;28;20092;-23
2023/03/30 01:01:59;;;;;;;1.27;1.15;;;17.70;61.30;;;;;;5053537;28;20033;-23
2023/03/30 01:04:27;;;;;;;2.15;1.40;;;17.70;61.30;;;;;;5053529;28;20370;-23
2023/03/30 01:06:56;;;;;;;1.65;1.50;;;17.70;61.30;;;;;;5053729;28;20060;-23
2023/03/30 01:09:25;;;;;;;1.92;1.73;;;17.70;61.30;;;;;;5053125;28;20519;-23
2023/03/30 01:11:51;;;;;;;1.52;1.40;;;17.70;61.30;;;;;;5053477;28;20079;-23
2023/03/30 01:14:17;;;;;;;1.40;1.30;;;17.70;61.30;;;;;;5053327;28;20060;-22
2023/03/30 01:17:17;;;;;;;1.75;1.65;;;17.70;61.30;;;;;;5053240;28;20025;-22
2023/03/30 01:20:15;;;;;;;1.40;1.30;;;17.70;61.40;;;;;;5053193;28;20044;-24
2023/03/30 01:23:00;;;;;;;2.13;1.70;;;17.70;61.40;;;;;;5053138;28;20033;-23
2023/03/30 01:25:37;;;;;;;3.15;1.90;;;17.70;61.40;;;;;;5053194;28;20028;-23
2023/03/30 01:28:20;;;;;;;1.30;1.20;;;17.70;61.40;;;;;;5052838;28;20487;-23
2023/03/30 01:30:52;;;;;;;1.65;1.55;;;17.70;61.40;;;;;;5053377;28;20025;-23
2023/03/30 01:33:27;;;;;;;1.40;1.30;;;17.70;61.40;;;;;;5053348;28;20052;-23
2023/03/30 01:35:59;;;;;;;1.48;1.38;;;17.70;61.50;;;;;;5053158;28;20049;-24
2023/03/30 01:38:43;;;;;;;1.40;1.30;;;17.70;61.40;;;;;;5053252;28;20033;-23
2023/03/30 01:41:28;;;;;;;2.30;1.40;;;17.60;61.50;;;;;;5053244;28;20086;-24
2023/03/30 01:44:10;;;;;;;1.88;1.52;;;17.70;61.50;;;;;;5052181;28;20112;-24
2023/03/30 01:46:43;;;;;;;1.98;1.63;;;17.70;61.50;;;;;;5053232;28;20032;-23
2023/03/30 01:49:19;;;;;;;1.80;1.48;;;17.70;61.50;;;;;;5052951;28;20559;-24
2023/03/30 01:51:58;;;;;;;1.85;1.58;;;17.70;61.50;;;;;;5052625;28;20029;-25
2023/03/30 01:54:35;;;;;;;1.45;1.35;;;17.60;61.50;;;;;;5053153;28;20098;-24
2023/03/30 01:57:17;;;;;;;1.95;1.35;;;17.60;61.50;;;;;;5052861;28;20481;-24
2023/03/30 01:59:55;;;;;;;1.35;1.20;;;17.60;61.50;;;;;;5052574;28;20389;-24
2023/03/30 02:02:26;;;;;;;2.03;1.60;;;17.70;61.50;;;;;;5053060;28;20507;-24
2023/03/30 02:04:53;;;;;;;2.55;1.27;;;17.60;61.50;;;;;;5052895;28;20469;-24
2023/03/30 02:07:27;;;;;;;1.40;1.30;;;17.70;61.60;;;;;;5052447;28;20028;-24
2023/03/30 02:09:55;;;;;;;;;;;17.60;61.60;;;;;;5052983;28;20510;-23
2023/03/30 02:12:23;;;;;;;1.55;1.23;;;17.60;61.80;;;;;;5052659;28;19966;-24
2023/03/30 02:14:50;;;;;;;1.65;1.55;;;17.60;61.60;;;;;;5052597;28;20059;-24
2023/03/30 02:17:21;;;;;;;1.55;1.33;;;17.60;61.60;;;;;;5052946;28;20033;-24
2023/03/30 02:19:48;;;;;;;2.10;1.63;;;17.60;61.60;;;;;;5051165;28;20423;-24
2023/03/30 02:22:16;;;;;;;2.60;1.65;;;17.60;61.60;;;;;;5052978;28;20033;-24
2023/03/30 02:24:44;;;;;;;1.80;1.50;;;17.60;61.60;;;;;;5052969;28;20029;-24
2023/03/30 02:27:11;;;;;;;1.52;1.40;;;17.60;61.60;;;;;;5052692;28;20516;-24
2023/03/30 02:29:42;;;;;;;2.08;1.40;;;17.60;61.60;;;;;;5052289;28;20037;-24
2023/03/30 02:32:18;;;;;;;1.55;1.45;;;17.60;61.60;;;;;;5053095;28;20044;-25
2023/03/30 02:35:21;;;;;;;1.48;1.30;;;17.60;61.70;;;;;;5052431;28;20048;-23
2023/03/30 02:38:03;;;;;;;1.73;1.42;;;17.60;61.70;;;;;;5052212;28;20044;-23
2023/03/30 02:40:36;;;;;;;3.30;1.63;;;17.60;61.70;;;;;;5052492;28;20021;-23
2023/03/30 02:43:20;;;;;;;4.10;1.40;;;17.60;61.70;;;;;;5052680;28;20040;-23
2023/03/30 02:46:20;;;;;;;3.28;1.60;;;17.60;61.70;;;;;;5052138;28;20035;-24
2023/03/30 02:49:00;;;;;;;2.15;1.30;;;17.60;61.70;;;;;;5051003;28;20371;-24
2023/03/30 02:51:44;;;;;;;1.92;1.73;;;17.60;61.70;;;;;;5052336;28;20469;-23
2023/03/30 02:54:51;;;;;;;1.70;1.60;;;17.60;61.70;;;;;;5052279;28;20031;-24
2023/03/30 02:57:42;;;;;;;1.50;1.40;;;17.50;61.80;;;;;;5054806;28;20029;-25
2023/03/30 03:00:16;;;;;;;1.50;1.40;;;17.50;61.80;;;;;;5055838;28;20029;-24
2023/03/30 03:02:48;;;;;;;2.08;1.67;;;17.50;61.70;;;;;;5056080;28;20071;-24
2023/03/30 03:05:15;;;;;;;2.38;1.50;;;17.50;61.70;;;;;;5055633;28;20055;-24
2023/03/30 03:07:44;;;;;;;1.50;1.40;;;17.50;61.80;;;;;;5055397;28;20584;-23
2023/03/30 03:10:10;;;;;;;1.92;1.55;;;17.50;61.80;;;;;;5055490;28;20036;-24
2023/03/30 03:12:36;;;;;;;1.00;1.00;;;17.50;61.80;;;;;;5055854;28;20025;-25
2023/03/30 03:15:04;;;;;;;1.80;1.60;;;17.50;61.80;;;;;;5055785;28;20036;-25
2023/03/30 03:17:33;;;;;;;2.10;1.48;;;17.50;61.80;;;;;;5055573;28;20017;-24
2023/03/30 03:20:01;;;;;;;1.55;1.40;;;17.50;61.80;;;;;;5055370;28;20037;-24
2023/03/30 03:22:27;;;;;;;1.42;1.30;;;17.50;61.80;;;;;;5055576;28;20562;-24
2023/03/30 03:24:53;;;;;;;2.05;1.48;;;17.50;61.80;;;;;;5055548;28;20025;-24
2023/03/30 03:27:19;;;;;;;1.40;1.30;;;17.50;61.80;;;;;;5055292;28;20029;-24
2023/03/30 03:29:45;;;;;;;2.17;1.70;;;17.50;61.90;;;;;;5055265;28;20060;-23
2023/03/30 03:32:11;;;;;;;1.67;1.50;;;17.50;61.80;;;;;;5055645;28;20033;-24
2023/03/30 03:34:38;;;;;;;1.80;1.50;;;17.50;61.90;;;;;;5055231;28;20087;-24
2023/03/30 03:37:04;;;;;;;2.17;1.42;;;17.50;61.90;;;;;;5053871;28;20384;-24
2023/03/30 03:39:31;;;;;;;1.67;1.58;;;17.50;61.90;;;;;;5055026;28;20120;-24
2023/03/30 03:41:56;;;;;;;1.50;1.40;;;17.50;61.90;;;;;;5054830;28;20029;-24
2023/03/30 03:44:23;;;;;;;2.25;1.55;;;17.50;61.90;;;;;;5054941;28;20040;-25
2023/03/30 03:46:48;;;;;;;1.90;1.60;;;17.50;61.90;;;;;;5054851;28;20043;-25
2023/03/30 03:49:14;;;;;;;1.98;1.50;;;17.40;61.90;;;;;;5054644;28;20037;-24
2023/03/30 03:51:43;;;;;;;1.52;1.42;;;17.50;61.90;;;;;;5055155;28;20135;-23
2023/03/30 03:54:09;;;;;;;2.90;1.67;;;17.40;61.90;;;;;;5054795;28;20032;-24
2023/03/30 03:56:35;;;;;;;2.17;1.67;;;17.40;61.90;;;;;;5054718;28;20459;-25
2023/03/30 03:59:02;;;;;;;1.63;1.48;;;17.50;62.00;;;;;;5054655;28;20532;-23
2023/03/30 04:01:28;;;;;;;1.60;1.40;;;17.40;61.90;;;;;;5054946;28;20067;-24
2023/03/30 04:03:57;;;;;;;1.52;1.42;;;17.40;61.90;;;;;;5054312;28;20025;-24
2023/03/30 04:06:23;;;;;;;1.70;1.60;;;17.40;62.00;;;;;;5054501;28;20424;-24
2023/03/30 04:08:49;;;;;;;1.50;1.38;;;17.40;62.00;;;;;;5053797;28;20041;-24
2023/03/30 04:11:16;;;;;;;2.65;1.60;;;17.40;62.00;;;;;;5054412;28;20078;-23
2023/03/30 04:13:42;;;;;;;2.30;1.50;;;17.40;62.00;;;;;;5054831;28;20079;-23
2023/03/30 04:16:09;;;;;;;1.75;1.60;;;17.40;62.00;;;;;;5054675;28;20163;-24
2023/03/30 04:18:35;;;;;;;1.88;1.70;;;17.40;62.00;;;;;;5053082;28;20032;-24
2023/03/30 04:21:06;;;;;;;1.92;1.80;;;17.40;62.00;;;;;;5054471;28;20033;-24
2023/03/30 04:23:33;;;;;;;1.65;1.55;;;17.40;62.00;;;;;;5054513;28;20389;-24
2023/03/30 04:26:00;;;;;;;4.20;1.60;;;17.40;62.10;;;;;;5054007;28;20063;-24
2023/03/30 04:28:31;;;;;;;2.03;1.52;;;17.40;62.10;;;;;;5053988;28;20104;-24
2023/03/30 04:30:59;;;;;;;1.75;1.50;;;17.40;62.10;;;;;;5054113;28;20477;-23
2023/03/30 04:33:26;;;;;;;1.88;1.60;;;17.40;62.10;;;;;;5052818;28;20389;-24
2023/03/30 04:35:52;;;;;;;2.08;1.70;;;17.40;62.10;;;;;;5053659;28;20040;-24
2023/03/30 04:38:21;;;;;;;1.55;1.42;;;17.40;62.10;;;;;;5054250;28;20025;-24
2023/03/30 04:40:51;;;;;;;2.85;1.55;;;17.40;62.10;;;;;;5054158;28;20122;-24
2023/03/30 04:43:21;;;;;;;1.83;1.60;;;17.40;62.10;;;;;;5053771;28;20033;-24
2023/03/30 04:45:52;;;;;;;2.17;1.75;;;17.40;62.10;;;;;;5053600;28;20104;-25
2023/03/30 04:48:19;;;;;;;1.50;1.40;;;17.40;62.10;;;;;;5053700;28;20041;-23
2023/03/30 04:50:46;;;;;;;1.75;1.52;;;17.40;62.10;;;;;;5053602;28;20029;-25
2023/03/30 04:53:14;;;;;;;2.15;1.50;;;17.40;62.10;;;;;;5053938;28;20043;-24
2023/03/30 04:55:41;;;;;;;2.03;1.83;;;17.40;62.10;;;;;;5053969;28;20025;-24
2023/03/30 04:58:10;;;;;;;2.10;1.73;;;17.40;62.20;;;;;;5052475;28;20078;-24
2023/03/30 05:00:36;;;;;;;1.65;1.55;;;17.40;62.20;;;;;;5053813;28;20027;-24
2023/03/30 05:03:03;;;;;;;1.55;1.45;;;17.40;62.20;;;;;;5053753;28;20029;-24
2023/03/30 05:05:29;;;;;;;1.73;1.60;;;17.40;62.20;;;;;;5053678;28;20029;-24
2023/03/30 05:07:56;;;;;;;1.65;1.55;;;17.40;62.20;;;;;;5052982;28;20111;-24
2023/03/30 05:10:22;;;;;;;1.70;1.60;;;17.40;62.20;;;;;;5053363;28;20049;-24
2023/03/30 05:12:48;;;;;;;3.17;1.58;;;17.40;62.20;;;;;;5053588;28;20021;-23
2023/03/30 05:15:15;;;;;;;1.70;1.60;;;17.30;62.20;;;;;;5053279;28;20116;-24
2023/03/30 05:17:41;;;;;;;1.77;1.48;;;17.40;62.20;;;;;;5053566;28;20029;-24
2023/03/30 05:20:08;;;;;;;1.63;1.52;;;17.30;62.30;;;;;;5052598;28;20021;-23
2023/03/30 05:22:35;;;;;;;2.65;1.88;;;17.30;62.20;;;;;;5053283;28;20040;-24
2023/03/30 05:25:02;;;;;;;1.52;1.42;;;17.30;62.20;;;;;;5053131;28;20033;-24
2023/03/30 05:27:28;;;;;;;2.22;1.67;;;17.30;62.30;;;;;;5053091;28;20135;-24
2023/03/30 05:29:55;;;;;;;1.48;1.38;;;17.30;62.30;;;;;;5052840;28;20104;-24
2023/03/30 05:32:21;;;;;;;2.38;1.58;;;17.30;62.30;;;;;;5053021;28;20498;-24
2023/03/30 05:34:47;;;;;;;1.80;1.60;;;17.30;62.30;;;;;;5053270;28;20025;-23
2023/03/30 05:37:13;;;;;;;1.90;1.67;;;17.30;62.30;;;;;;5053280;28;20036;-24
2023/03/30 05:39:39;;;;;;;1.77;1.58;;;17.30;62.30;;;;;;5052940;28;20508;-24
2023/03/30 05:42:06;;;;;;;1.70;1.60;;;17.30;62.30;;;;;;5052702;28;20025;-23
2023/03/30 05:44:33;;;;;;;1.73;1.63;;;17.30;62.30;;;;;;5051835;28;20643;-24
2023/03/30 05:46:59;;;;;;;1.67;1.58;;;17.30;62.30;;;;;;5052938;28;20059;-24
2023/03/30 05:49:25;;;;;;;2.20;1.60;;;17.30;62.30;;;;;;5052703;28;20029;-24
2023/03/30 05:51:52;;;;;;;1.90;1.70;;;17.30;62.30;;;;;;5052706;28;20044;-23
2023/03/30 05:54:18;;;;;;;2.33;1.77;;;17.30;62.40;;;;;;5052815;28;20099;-24
2023/03/30 05:56:44;;;;;;;1.75;1.65;;;17.30;62.30;;;;;;5052850;28;20120;-25
2023/03/30 05:59:11;;;;;;;2.92;1.70;;;17.30;62.30;;;;;;5052779;28;20055;-24
2023/03/30 06:01:38;;;;;;;1.67;1.55;;;17.40;62.30;;;;;;5053221;28;20040;-24
2023/03/30 06:04:04;;;;;;;1.90;1.67;;;17.30;62.30;;;;;;5052775;28;20112;-23
2023/03/30 06:06:31;;;;;;;1.65;1.55;;;17.40;62.30;;;;;;5053162;28;20047;-25
2023/03/30 06:08:57;;;;;;;1.77;1.60;;;17.40;62.30;;;;;;5052298;28;20053;-24
2023/03/30 06:11:23;;;;;;;2.33;1.63;;;17.40;62.30;;;;;;5052511;28;20559;-24
2023/03/30 06:13:49;;;;;;;2.22;1.42;;;17.40;62.30;;;;;;5052639;28;20037;-24
2023/03/30 06:16:15;;;;;;;2.90;1.50;;;17.40;62.30;;;;;;5052577;28;20495;-24
2023/03/30 06:18:41;;;;;;;4.07;1.83;;;17.40;62.30;;;;;;5052670;28;20025;-24
2023/03/30 06:21:07;;;;;;;6.13;2.20;;;17.40;62.40;;;;;;5052561;28;20052;-24
2023/03/30 06:23:34;;;;;;;3.60;1.90;;;17.40;62.40;;;;;;5052551;28;20036;-24
2023/03/30 06:26:00;;;;;;;3.40;2.10;;;17.40;62.40;;;;;;5052656;28;20056;-24
2023/03/30 06:28:26;;;;;;;3.30;1.90;;;17.40;62.50;;;;;;5052728;28;20497;-24
2023/03/30 06:30:52;;;;;;;5.35;1.80;;;17.40;62.50;;;;;;5054522;28;20037;-23
2023/03/30 06:33:19;;;;;;;3.22;2.03;;;17.40;62.50;;;;;;5056398;28;20074;-24
2023/03/30 06:35:53;;;;;;;2.25;1.98;;;17.40;62.50;;;;;;5056167;28;20446;-24
2023/03/30 06:38:21;;;;;;;2.83;1.92;;;17.40;62.50;;;;;;5056513;28;20036;-24
2023/03/30 06:40:47;;;;;;;6.35;2.05;;;17.40;62.60;;;;;;5056235;28;20056;-24
2023/03/30 06:43:23;;;;;;;5.13;1.90;;;17.40;62.60;;;;;;5056357;28;20025;-24
2023/03/30 06:45:51;;;;;;;2.38;1.80;;;17.40;62.60;;;;;;5056315;28;20024;-24
2023/03/30 06:48:18;;;;;;;2.78;1.90;;;17.40;62.60;;;;;;5055892;28;20036;-23
2023/03/30 06:50:48;;;;;;;2.83;1.70;;;17.40;62.60;;;;;;5056065;28;20037;-24
2023/03/30 06:53:15;;;;;;;2.40;1.80;;;17.40;62.60;;;;;;5055764;28;20519;-24
2023/03/30 06:55:41;;;;;;;7.30;2.00;;;17.40;62.60;;;;;;5055802;28;20029;-23
2023/03/30 06:58:10;;;;;;;2.80;1.60;;;17.40;62.70;;;;;;5056553;28;20021;-23
2023/03/30 07:00:36;;;;;;;4.00;2.10;;;17.40;62.70;;;;;;5056219;28;20037;-23
2023/03/30 07:03:02;;;;;;;2.15;1.70;;;17.40;62.70;;;;;;5054547;28;20021;-24
2023/03/30 07:05:29;;;;;;;5.63;1.63;;;17.40;62.70;;;;;;5055899;28;20028;-24
2023/03/30 07:07:55;;;;;;;4.40;1.60;;;17.40;62.70;;;;;;5055355;28;20405;-24
2023/03/30 07:10:22;;;;;;;2.67;1.63;;;17.40;62.70;;;;;;5055817;28;20037;-24
2023/03/30 07:12:48;;;;;;;2.72;1.80;;;17.50;62.70;;;;;;5055572;28;20060;-24
2023/03/30 07:15:14;;;;;;;3.28;1.90;;;17.40;62.70;;;;;;5055693;28;20033;-24
2023/03/30 07:17:40;;;;;;;3.72;2.00;;;17.50;62.60;;;;;;5055402;28;20082;-23
2023/03/30 07:20:08;;;;;;;1.70;1.55;;;17.40;62.70;;;;;;5055099;28;20052;-24
2023/03/30 07:22:34;;;;;;;1.92;1.60;;;17.50;62.70;;;;;;5054469;28;20104;-24
2023/03/30 07:25:00;;;;;;;2.47;1.48;;;17.50;62.70;;;;;;5055176;28;20025;-24
2023/03/30 07:27:26;;;;;;;4.20;1.83;;;17.50;62.70;;;;;;5055531;28;20028;-24
2023/03/30 07:29:54;;;;;;;1.50;1.40;;;17.50;62.60;;;;;;5055019;28;20432;-23
2023/03/30 07:32:21;;;;;;;4.40;1.70;;;17.50;62.60;;;;;;5055593;28;20548;-25
2023/03/30 07:34:47;;;;;;;3.08;1.75;;;17.50;62.60;;;;;;5055164;28;20021;-24
2023/03/30 07:37:13;;;;;;;1.92;1.70;;;17.50;62.60;;;;;;5055379;28;20361;-24
2023/03/30 07:39:40;;;;;;;3.33;2.38;;;17.50;62.60;;;;;;5055324;28;20021;-24
2023/03/30 07:42:06;;;;;;;3.47;1.90;;;17.60;62.60;;;;;;5053921;28;20036;-24
2023/03/30 07:44:32;;;;;;;2.30;1.60;;;17.50;62.60;;;;;;5054926;28;20025;-24
2023/03/30 07:46:58;;;;;;;3.60;2.00;;;17.50;62.50;;;;;;5055197;28;20021;-24
2023/03/30 07:49:24;;;;;;;3.65;1.60;;;17.50;62.50;;;;;;5054926;28;20071;-24
2023/03/30 07:51:52;;;;;;;2.35;1.73;;;17.60;62.50;;;;;;5054679;28;20025;-23
2023/03/30 07:54:18;;;;;;;2.33;1.70;;;17.60;62.50;;;;;;5055024;28;20021;-24
2023/03/30 07:56:44;;;;;;;2.88;1.90;;;17.60;62.50;;;;;;5054775;28;20393;-24
2023/03/30 07:59:12;;;;;;;2.10;1.90;;;17.60;62.50;;;;;;5054940;28;20473;-24
2023/03/30 08:01:38;;;;;;;2.55;1.70;;;17.60;62.50;;;;;;5054642;28;20116;-25
2023/03/30 08:04:05;;;;;;;4.13;1.90;;;17.60;62.40;;;;;;5054607;28;20108;-24
2023/03/30 08:06:31;;;;;;;1.63;1.52;;;17.60;62.40;;;;;;5054918;28;20055;-24
2023/03/30 08:08:56;;;;;;;2.10;1.55;;;17.60;62.40;;;;;;5054427;28;20400;-24
2023/03/30 08:11:22;;;;;;;2.00;1.80;;;17.60;62.40;;;;;;5054464;28;20036;-24
2023/03/30 08:13:48;;;;;;;2.25;1.55;;;17.60;62.40;;;;;;5054327;28;20028;-24
2023/03/30 08:16:14;;;;;;;2.15;1.70;;;17.60;62.40;;;;;;5054377;28;20022;-24
2023/03/30 08:18:40;;;;;;;2.83;1.77;;;17.60;62.30;;;;;;5054346;28;20519;-24
2023/03/30 08:21:06;;;;;;;4.63;1.90;;;17.60;62.30;;;;;;5054343;28;20025;-24
2023/03/30 08:23:32;;;;;;;3.03;2.00;;;17.60;62.30;;;;;;5054295;28;20021;-24
2023/03/30 08:25:59;;;;;;;2.95;1.85;;;17.60;62.30;;;;;;5054288;28;20027;-24
2023/03/30 08:28:26;;;;;;;1.83;1.60;;;17.60;62.30;;;;;;5052827;28;20033;-25
2023/03/30 08:30:53;;;;;;;2.42;1.63;;;17.60;62.30;;;;;;5054445;28;20025;-24
2023/03/30 08:33:20;;;;;;;3.47;2.08;;;17.70;62.30;;;;;;5054086;28;20029;-25
2023/03/30 08:35:47;;;;;;;2.00;1.70;;;17.60;62.20;;;;;;5053995;28;20032;-23
2023/03/30 08:38:16;;;;;;;1.90;1.50;;;17.70;62.20;;;;;;5054251;28;20029;-25
2023/03/30 08:40:47;;;;;;;2.25;1.85;;;17.60;62.20;;;;;;5054387;28;20111;-24
2023/03/30 08:43:19;;;;;;;4.68;2.10;;;17.60;62.10;;;;;;5054246;28;20032;-24
2023/03/30 08:45:45;;;;;;;2.70;1.58;;;17.70;62.10;;;;;;5053830;28;20029;-23
2023/03/30 08:48:24;;;;;;;2.53;1.80;;;17.70;62.20;;;;;;5054065;28;20119;-23
2023/03/30 08:50:57;;;;;;;3.95;1.63;;;17.70;62.10;;;;;;5053839;28;20389;-23
2023/03/30 08:53:23;;;;;;;;;;;17.70;62.00;;;;;;5054112;28;20496;-24
2023/03/30 08:55:55;;;;;;;3.28;1.73;;;17.70;62.00;;;;;;5053768;28;19904;-23
2023/03/30 08:58:42;;;;;;;1.98;1.67;;;17.70;61.90;;;;;;5053931;28;20029;-24
2023/03/30 09:01:21;;;;;;;1.60;1.50;;;17.70;61.80;;;;;;5053777;28;20096;-22
2023/03/30 09:03:53;;;;;;;2.55;1.92;;;17.70;61.80;;;;;;5053607;28;20167;-23
2023/03/30 09:06:31;;;;;;;2.05;1.85;;;17.70;61.80;;;;;;5052197;28;20385;-23
2023/03/30 09:08:57;;;;;;;1.92;1.60;;;17.70;61.70;;;;;;5053164;28;20041;-24
2023/03/30 09:11:32;;;;;;;1.70;1.60;;;17.70;61.80;;;;;;5053560;28;20029;-24
2023/03/30 09:14:01;;;;;;;2.65;1.65;;;17.70;61.80;;;;;;5052004;28;20053;-25
2023/03/30 09:16:27;;;;;;;2.72;1.90;;;17.70;61.90;;;;;;5053270;28;20025;-24
2023/03/30 09:18:57;;;;;;;2.95;1.75;;;17.70;61.80;;;;;;5053309;28;20032;-23
2023/03/30 09:21:28;;;;;;;2.15;1.77;;;17.70;61.80;;;;;;5053407;28;20074;-24
2023/03/30 09:23:57;;;;;;;2.47;1.95;;;17.70;61.70;;;;;;5052941;28;20025;-23
2023/03/30 09:26:39;;;;;;;2.55;1.90;;;17.70;61.60;;;;;;5053429;28;20024;-25
2023/03/30 09:29:09;;;;;;;1.60;1.50;;;17.70;61.60;;;;;;5053077;28;20041;-25
2023/03/30 09:31:44;;;;;;;2.47;1.55;;;17.70;61.70;;;;;;5053095;28;20032;-25
2023/03/30 09:34:40;;;;;;;2.53;1.63;;;17.70;61.60;;;;;;5053331;28;20036;-24
2023/03/30 09:37:12;;;;;;;3.08;1.45;;;17.70;61.60;;;;;;5053116;28;20032;-25
2023/03/30 09:39:40;;;;;;;2.08;1.38;;;17.70;61.70;;;;;;5053364;28;20043;-25
2023/03/30 09:42:35;;;;;;;1.98;1.65;;;17.70;61.70;;;;;;5053176;28;20465;-25
2023/03/30 09:45:18;;;;;;;1.60;1.50;;;17.70;61.70;;;;;;5053394;28;20037;-26
2023/03/30 09:47:45;;;;;;;3.17;1.70;;;17.70;61.70;;;;;;5053038;28;20029;-25
2023/03/30 09:50:16;;;;;;;2.38;1.88;;;17.70;61.60;;;;;;5051517;28;20025;-26
2023/03/30 09:52:56;;;;;;;2.55;1.90;;;17.70;61.60;;;;;;5052961;28;20124;-25
2023/03/30 09:55:27;;;;;;;1.90;1.58;;;17.80;61.70;;;;;;5052889;28;20033;-25
2023/03/30 09:58:08;;;;;;;1.40;1.30;;;17.70;61.70;;;;;;5052675;28;20048;-24
2023/03/30 10:00:38;;;;;;;1.92;1.58;;;17.80;61.70;;;;;;5052849;28;20029;-25
2023/03/30 10:03:17;;;;;;;1.80;1.40;;;17.80;61.70;;;;;;5052409;28;20032;-24
2023/03/30 10:05:43;;;;;;;1.95;1.65;;;17.80;61.70;;;;;;5054201;28;20021;-27
2023/03/30 10:08:21;;;;;;;1.87;1.73;;;17.70;61.70;;;;;;5056379;28;20049;-26
2023/03/30 10:10:54;;;;;;;2.22;1.60;;;17.70;61.80;;;;;;5057046;28;20267;-25
2023/03/30 10:13:27;;;;;;;2.30;1.63;;;17.80;61.80;;;;;;5056995;28;20029;-25
2023/03/30 10:15:53;;;;;;;2.13;1.60;;;17.80;61.80;;;;;;5056427;28;20032;-25
2023/03/30 10:18:25;;;;;;;1.88;1.30;;;17.70;61.80;;;;;;5056869;28;20025;-25
2023/03/30 10:21:03;;;;;;;1.70;1.60;;;17.80;61.80;;;;;;5056472;28;20029;-24
2023/03/30 10:23:32;;;;;;;3.95;2.17;;;17.70;61.80;;;;;;5056815;28;20060;-25
2023/03/30 10:26:02;;;;;;;1.60;1.50;;;17.80;61.80;;;;;;5056569;28;20151;-25
2023/03/30 10:28:32;;;;;;;1.60;1.50;;;17.80;61.80;;;;;;5055078;28;20504;-25
2023/03/30 10:31:06;;;;;;;2.05;1.50;;;17.70;61.80;;;;;;5056628;28;20171;-25
2023/03/30 10:33:40;;;;;;;2.67;2.03;;;17.80;61.80;;;;;;5056531;28;20378;-27
2023/03/30 10:36:06;;;;;;;1.92;1.48;;;17.80;61.90;;;;;;5056030;28;20032;-25
2023/03/30 10:38:33;;;;;;;4.97;1.77;;;17.80;61.90;;;;;;5056470;28;20032;-25
2023/03/30 10:41:08;;;;;;;1.73;1.63;;;17.80;61.90;;;;;;5056457;28;20029;-25
2023/03/30 10:43:35;;;;;;;4.38;2.00;;;17.80;62.00;;;;;;5056179;28;20033;-25
2023/03/30 10:46:16;;;;;;;2.17;1.92;;;17.80;61.90;;;;;;5056235;28;20021;-26
2023/03/30 10:49:19;;;;;;;2.05;1.55;;;17.80;61.90;;;;;;5056354;28;20032;-25
2023/03/30 10:52:03;;;;;;;2.78;1.58;;;17.80;61.90;;;;;;5056088;28;20079;-24
2023/03/30 10:54:32;;;;;;;;;;;17.70;61.90;;;;;;5056787;28;20060;-25
2023/03/30 10:57:14;;;;;;;2.00;1.60;;;17.80;62.20;;;;;;5055916;28;19904;-24
2023/03/30 10:59:43;;;;;;;2.13;1.60;;;17.80;62.00;;;;;;5056086;28;20028;-25
2023/03/30 11:02:27;;;;;;;2.63;1.70;;;17.70;62.00;;;;;;5056116;28;20369;-24
2023/03/30 11:04:59;;;;;;;2.15;1.50;;;17.70;62.00;;;;;;5055687;28;20090;-24
2023/03/30 11:07:39;;;;;;;2.83;1.45;;;17.80;62.10;;;;;;5055699;28;20045;-23
2023/03/30 11:10:17;;;;;;;3.28;1.60;;;17.80;62.10;;;;;;5055717;28;20112;-23
2023/03/30 11:12:48;;;;;;;3.05;1.48;;;17.80;62.10;;;;;;5056120;28;20420;-25
2023/03/30 11:15:26;;;;;;;3.25;1.70;;;17.80;62.10;;;;;;5055899;28;20075;-25
2023/03/30 11:18:20;;;;;;;2.03;1.50;;;17.80;62.10;;;;;;5054064;28;20519;-24
2023/03/30 11:21:06;;;;;;;2.58;1.60;;;17.80;62.00;;;;;;5055432;28;20083;-25
2023/03/30 11:23:50;;;;;;;2.00;1.50;;;17.80;61.90;;;;;;5055425;28;20068;-24
2023/03/30 11:26:30;;;;;;;1.42;1.33;;;17.80;61.80;;;;;;5055740;28;20017;-25
2023/03/30 11:29:21;;;;;;;2.53;1.70;;;17.80;61.90;;;;;;5055534;28;20036;-24
2023/03/30 11:32:08;;;;;;;2.28;1.75;;;17.80;61.90;;;;;;5055429;28;20060;-23
2023/03/30 11:34:52;;;;;;;2.17;1.70;;;17.80;61.90;;;;;;5054825;28;20025;-24
2023/03/30 11:37:45;;;;;;;2.28;2.03;;;17.80;61.80;;;;;;5054990;28;20037;-24
2023/03/30 11:40:19;;;;;;;2.63;1.67;;;17.70;61.70;;;;;;5055520;28;20032;-24
2023/03/30 11:42:46;;;;;;;1.90;1.70;;;17.80;61.50;;;;;;5055145;28;20035;-24
2023/03/30 11:45:44;;;;;;;3.90;1.83;;;17.80;61.50;;;;;;5055344;28;20040;-24
2023/03/30 11:48:13;;;;;;;1.92;1.70;;;17.80;61.60;;;;;;5053804;28;20108;-23
2023/03/30 11:50:47;;;;;;;1.42;1.33;;;17.80;61.70;;;;;;5055102;28;20044;-24
2023/03/30 11:53:35;;;;;;;2.22;1.70;;;17.70;61.70;;;;;;5055230;28;20029;-25
2023/03/30 11:56:11;;;;;;;1.45;1.35;;;17.80;61.80;;;;;;5054788;28;20477;-24
2023/03/30 11:58:44;;;;;;;7.68;2.00;;;17.80;61.70;;;;;;5055131;28;20029;-24
2023/03/30 12:01:37;;;;;;;3.13;1.52;;;17.70;61.80;;;;;;5055176;28;20029;-23
2023/03/30 12:04:14;;;;;;;3.83;1.70;;;17.80;61.80;;;;;;5054806;28;20033;-23
2023/03/30 12:06:56;;;;;;;1.67;1.45;;;17.70;61.70;;;;;;5054755;28;20025;-23
2023/03/30 12:09:40;;;;;;;5.05;1.63;;;17.80;61.70;;;;;;5054046;28;20071;-24
2023/03/30 12:12:17;;;;;;;1.85;1.40;;;17.80;61.70;;;;;;5054313;28;20076;-24
2023/03/30 12:14:52;;;;;;;1.80;1.65;;;17.70;61.80;;;;;;5054172;28;20029;-24
2023/03/30 12:17:27;;;;;;;3.17;1.60;;;17.80;61.80;;;;;;5054049;28;20032;-25
2023/03/30 12:20:11;;;;;;;2.45;1.63;;;17.70;61.80;;;;;;5054216;28;20036;-23
2023/03/30 12:22:46;;;;;;;4.93;1.85;;;17.70;61.80;;;;;;5054071;28;20508;-25
2023/03/30 12:25:47;;;;;;;1.77;1.40;;;17.70;61.90;;;;;;5054458;28;20063;-25
2023/03/30 12:28:19;;;;;;;2.13;1.52;;;17.70;61.90;;;;;;5032438;28;20437;-24
2023/03/30 12:30:51;;;;;;;1.95;1.15;;;17.70;61.90;;;;;;5054335;28;20028;-24
2023/03/30 12:33:25;;;;;;;3.78;1.48;;;17.70;61.90;;;;;;5053987;28;20029;-24
2023/03/30 12:35:53;;;;;;;1.90;1.35;;;17.80;61.90;;;;;;5053818;28;20043;-25
2023/03/30 12:38:24;;;;;;;2.42;1.77;;;17.70;61.90;;;;;;5054028;28;20489;-25
2023/03/30 12:41:17;;;;;;;1.30;1.20;;;17.80;61.90;;;;;;5053716;28;20033;-25
2023/03/30 12:44:13;;;;;;;2.05;1.60;;;17.80;61.90;;;;;;5053524;28;20500;-25
2023/03/30 12:47:08;;;;;;;1.92;1.50;;;17.80;61.90;;;;;;5034427;28;20029;-26
2023/03/30 12:49:56;;;;;;;1.85;1.60;;;17.70;61.90;;;;;;5046196;28;20036;-24
2023/03/30 12:52:30;;;;;;;5.13;1.80;;;17.80;61.90;;;;;;5053684;28;20473;-24
2023/03/30 12:55:17;;;;;;;1.50;1.30;;;17.80;61.90;;;;;;5053641;28;20024;-24
2023/03/30 12:58:11;;;;;;;2.88;1.60;;;17.80;61.90;;;;;;5053258;28;20467;-25
2023/03/30 13:00:53;;;;;;;1.75;1.42;;;17.80;61.90;;;;;;5053773;28;20025;-25
2023/03/30 13:03:40;;;;;;;1.75;1.50;;;17.80;61.90;;;;;;5053719;28;20025;-24
2023/03/30 13:06:33;;;;;;;2.20;1.63;;;17.80;61.90;;;;;;5053229;28;20025;-25
2023/03/30 13:09:11;;;;;;;2.78;2.10;;;17.80;61.80;;;;;;5051217;28;20036;-25
2023/03/30 13:11:48;;;;;;;2.65;2.10;;;17.80;61.70;;;;;;5053476;28;20090;-24
2023/03/30 13:14:43;;;;;;;3.15;1.85;;;17.80;61.60;;;;;;5053049;28;20112;-26